Time;durP1;ratioP1;P1;durP2;ratioP2;P2;SDS_P1;SDS_P2;PMS_P1;PMS_P2;Temp;Humidity;BMP_temperature;BMP_pressure;BME280_temperature;BME280_humidity;BME280_pressure;Samples;Min_cycle;Max_cycle;Signal;HPM_P1;HPM_P2
2020/12/11 00:00:37;;;;;;;;;;;;;;;-2.19;100.00;100146.72;5091418;28;20023;-69
2020/12/11 00:03:02;;;;;;;;;;;;;;;-2.18;100.00;100145.78;5091327;28;20389;-69
2020/12/11 00:05:28;;;;;;;;;;;;;;;-2.20;100.00;100145.84;5091305;28;20081;-69
2020/12/11 00:07:54;;;;;;;;;;;;;;;-2.15;100.00;100145.69;5092454;28;19923;-69
2020/12/11 00:10:20;;;;;;;;;;;;;;;-2.13;100.00;100141.16;5095105;28;20362;-69
2020/12/11 00:12:48;;;;;;;;;;;;;;;-2.13;100.00;100140.31;5095254;28;19956;-69
2020/12/11 00:15:15;;;;;;;;;;;;;;;-2.20;100.00;100135.22;5095216;28;20401;-68
2020/12/11 00:17:41;;;;;;;;;;;;;;;-2.31;100.00;100140.06;5094830;28;19924;-68
2020/12/11 00:20:07;;;;;;;;;;;;;;;-2.29;100.00;100137.34;5095112;28;19924;-68
2020/12/11 00:22:32;;;;;;;;;;;;;;;-2.38;100.00;100141.22;5094988;28;19924;-68
2020/12/11 00:24:58;;;;;;;;;;;;;;;-2.41;100.00;100138.66;5095075;28;20417;-68
2020/12/11 00:27:24;;;;;;;;;;;;;;;-2.46;100.00;100137.97;5094704;28;19931;-68
2020/12/11 00:29:50;;;;;;;;;;;;;;;-2.47;100.00;100138.88;5095042;28;19988;-68
2020/12/11 00:32:16;;;;;;;;;;;;;;;-2.44;100.00;100134.34;5094608;28;20301;-67
2020/12/11 00:34:42;;;;;;;;;;;;;;;-2.40;100.00;100138.63;5094952;28;20378;-69
2020/12/11 00:37:08;;;;;;;;;;;;;;;-2.40;100.00;100130.63;5094638;28;19977;-69
2020/12/11 00:39:34;;;;;;;;;;;;;;;-2.36;100.00;100132.25;5094683;28;19928;-69
2020/12/11 00:42:00;;;;;;;;;;;;;;;-2.34;100.00;100134.00;5094971;28;19930;-69
2020/12/11 00:44:26;;;;;;;;;;;;;;;-2.36;100.00;100128.75;5076456;28;20018;-68
2020/12/11 00:46:52;;;;;;;;;;;;;;;-2.31;100.00;100128.56;5094450;28;20026;-68
2020/12/11 00:49:19;;;;;;;;;;;;;;;-2.29;100.00;100122.25;5076488;28;19924;-68
2020/12/11 00:51:45;;;;;;;;;;;;;;;-2.24;100.00;100124.75;5076354;28;19924;-68
2020/12/11 00:54:11;;;;;;;;;;;;;;;-2.23;100.00;100123.81;5075939;28;19925;-68
2020/12/11 00:56:38;;;;;;;;;;;;;;;-2.25;100.00;100118.56;5076136;28;19931;-68
2020/12/11 00:59:03;;;;;;;;;;;;;;;-2.30;100.00;100117.00;5094439;28;19924;-69
2020/12/11 01:01:29;;;;;;;;;;;;;;;-2.27;100.00;100116.88;5093695;28;19924;-68
2020/12/11 01:03:55;;;;;;;;;;;;;;;-2.23;100.00;100113.16;5094536;28;19931;-68
2020/12/11 01:06:21;;;;;;;;;;;;;;;-2.23;100.00;100115.81;5094187;28;19947;-68
2020/12/11 01:08:47;;;;;;;;;;;;;;;-2.23;100.00;100107.84;5094306;28;19977;-68
2020/12/11 01:11:13;;;;;;;;;;;;;;;-2.22;100.00;100113.13;5076185;28;19928;-68
2020/12/11 01:13:39;;;;;;;;;;;;;;;-2.25;100.00;100110.56;5094172;28;19924;-70
2020/12/11 01:16:06;;;;;;;;;;;;;;;-2.28;100.00;100102.72;5075984;28;19931;-69
2020/12/11 01:18:31;;;;;;;;;;;;;;;-2.26;100.00;100094.69;5093852;28;19929;-68
2020/12/11 01:20:57;;;;;;;;;;;;;;;-2.26;100.00;100095.56;5093489;28;19947;-68
2020/12/11 01:23:24;;;;;;;;;;;;;;;-2.25;100.00;100091.97;5093878;28;19940;-68
2020/12/11 01:25:50;;;;;;;;;;;;;;;-2.19;100.00;100082.91;5094043;28;20011;-68
2020/12/11 01:28:15;;;;;;;;;;;;;;;-2.22;100.00;100091.88;5093790;28;19932;-68
2020/12/11 01:30:41;;;;;;;;;;;;;;;-2.26;100.00;100094.69;5093964;28;20320;-69
2020/12/11 01:33:07;;;;;;;;;;;;;;;-2.25;100.00;100097.28;5093897;28;19924;-68
2020/12/11 01:35:33;;;;;;;;;;;;;;;-2.22;100.00;100094.53;5093888;28;19939;-68
2020/12/11 01:37:58;;;;;;;;;;;;;;;-2.33;100.00;100088.72;5093605;28;19924;-68
2020/12/11 01:40:25;;;;;;;;;;;;;;;-2.38;100.00;100088.91;5093698;28;19924;-69
2020/12/11 01:42:51;;;;;;;;;;;;;;;-2.33;100.00;100082.56;5093558;28;19967;-68
2020/12/11 01:45:16;;;;;;;;;;;;;;;-2.33;100.00;100093.19;5093742;28;19982;-68
2020/12/11 01:47:42;;;;;;;;;;;;;;;-2.38;100.00;100085.38;5093424;28;20392;-68
2020/12/11 01:50:18;;;;;;;;;;;;;;;-2.40;100.00;100084.59;5093619;28;20001;-69
2020/12/11 01:52:44;;;;;;;;;;;;;;;-2.40;100.00;100084.59;5093779;28;19927;-68
2020/12/11 01:55:10;;;;;;;;;;;;;;;-2.36;100.00;100091.53;5075257;28;20019;-68
2020/12/11 01:57:42;;;;;;;;;;;;;;;-2.34;100.00;100087.00;5093177;28;19931;-68
2020/12/11 02:00:08;;;;;;;;;;;;;;;-2.36;100.00;100079.06;5093342;28;19952;-68
2020/12/11 02:02:36;;;;;;;;;;;;;;;-2.33;100.00;100078.09;5093165;28;19939;-68
2020/12/11 02:08:34;;;;;;;;;;;;;;;-2.32;100.00;100079.84;5093059;28;19920;-69
2020/12/11 02:10:59;;;;;;;;;;;;;;;-2.28;100.00;100072.63;5093096;28;20476;-68
2020/12/11 02:13:26;;;;;;;;;;;;;;;-2.23;100.00;100068.84;5093074;28;19931;-68
2020/12/11 02:15:52;;;;;;;;;;;;;;;-2.22;100.00;100067.03;5093084;28;20416;-68
2020/12/11 02:18:17;;;;;;;;;;;;;;;-2.19;100.00;100067.81;5092882;28;19924;-68
2020/12/11 02:20:44;;;;;;;;;;;;;;;-2.17;100.00;100061.56;5093002;28;19924;-68
2020/12/11 02:23:10;;;;;;;;;;;;;;;-2.18;100.00;100063.34;5092828;28;19959;-68
2020/12/11 02:25:39;;;;;;;;;;;;;;;-2.17;100.00;100056.25;5092934;28;19959;-68
2020/12/11 02:28:05;;;;;;;;;;;;;;;-2.21;100.00;100055.50;5092745;28;20389;-68
2020/12/11 02:30:31;;;;;;;;;;;;;;;-2.21;100.00;100055.50;5092428;28;19969;-68
2020/12/11 02:32:57;;;;;;;;;;;;;;;-2.22;100.00;100054.63;5092812;28;19928;-69
2020/12/11 02:35:23;;;;;;;;;;;;;;;-2.25;100.00;100054.72;5092592;28;19924;-68
2020/12/11 02:37:48;;;;;;;;;;;;;;;-2.20;100.00;100062.56;5092440;28;19950;-68
2020/12/11 02:40:15;;;;;;;;;;;;;;;-2.21;100.00;100056.34;5092725;28;19935;-68
2020/12/11 02:42:41;;;;;;;;;;;;;;;-2.29;100.00;100049.59;5092402;28;19928;-69
2020/12/11 02:45:06;;;;;;;;;;;;;;;-2.29;100.00;100058.44;5092133;28;19931;-68
2020/12/11 02:47:33;;;;;;;;;;;;;;;-2.28;100.00;100059.31;5092246;28;19959;-68
2020/12/11 02:49:59;;;;;;;;;;;;;;;-2.29;100.00;100058.44;5092486;28;19932;-68
2020/12/11 02:52:25;;;;;;;;;;;;;;;-2.25;100.00;100054.72;5092213;28;20015;-68
2020/12/11 02:54:50;;;;;;;;;;;;;;;-2.25;100.00;100054.72;5092365;28;19935;-68
2020/12/11 02:57:17;;;;;;;;;;;;;;;-2.21;100.00;100050.16;5092053;28;19924;-68
2020/12/11 02:59:43;;;;;;;;;;;;;;;-2.24;100.00;100040.50;5092131;28;20007;-68
2020/12/11 03:02:09;;;;;;;;;;;;;;;-2.24;100.00;100034.34;5092189;28;19924;-68
2020/12/11 03:04:34;;;;;;;;;;;;;;;-2.19;100.00;100030.56;5092154;28;19924;-68
2020/12/11 03:07:00;;;;;;;;;;;;;;;-2.16;100.00;100020.72;5091902;28;20412;-68
2020/12/11 03:09:26;;;;;;;;;;;;;;;-2.17;100.00;100022.53;5092157;28;19931;-68
2020/12/11 03:11:52;;;;;;;;;;;;;;;-2.22;100.00;100011.19;5073982;28;19924;-68
2020/12/11 03:14:18;;;;;;;;;;;;;;;-2.28;100.00;100006.16;5092043;28;19947;-68
2020/12/11 03:16:44;;;;;;;;;;;;;;;-2.26;100.00;100006.94;5091851;28;19928;-68
2020/12/11 03:19:10;;;;;;;;;;;;;;;-2.31;100.00;100001.81;5092056;28;19939;-68
2020/12/11 03:21:36;;;;;;;;;;;;;;;-2.30;100.00;99997.34;5073785;28;19932;-68
2020/12/11 03:24:01;;;;;;;;;;;;;;;-2.33;100.00;100002.81;5092042;28;19972;-68
2020/12/11 03:26:27;;;;;;;;;;;;;;;-2.32;100.00;100005.41;5091758;28;20036;-68
2020/12/11 03:28:53;;;;;;;;;;;;;;;-2.36;100.00;99999.31;5091897;28;20403;-69
2020/12/11 03:31:20;;;;;;;;;;;;;;;-2.38;100.00;100001.19;5091567;28;19931;-68
2020/12/11 03:33:46;;;;;;;;;;;;;;;-2.39;100.00;100007.44;5091841;28;19924;-68
2020/12/11 03:36:11;;;;;;;;;;;;;;;-2.32;100.00;100000.06;5091783;28;19947;-68
2020/12/11 03:38:37;;;;;;;;;;;;;;;-2.32;100.00;100000.06;5091880;28;20357;-69
2020/12/11 03:41:03;;;;;;;;;;;;;;;-2.30;100.00;100008.84;5073868;28;19968;-69
2020/12/11 03:43:29;;;;;;;;;;;;;;;-2.32;100.00;100005.41;5093924;28;19928;-69
2020/12/11 03:45:55;;;;;;;;;;;;;;;-2.34;100.00;100007.22;5095838;28;19924;-69
2020/12/11 03:48:21;;;;;;;;;;;;;;;-2.31;100.00;100004.47;5095815;28;19927;-69
2020/12/11 03:50:47;;;;;;;;;;;;;;;-2.34;100.00;100001.06;5095776;28;20337;-69
2020/12/11 03:53:13;;;;;;;;;;;;;;;-2.35;100.00;99989.56;5095824;28;19923;-69
2020/12/11 03:55:39;;;;;;;;;;;;;;;-2.34;100.00;99990.44;5095855;28;19928;-70
2020/12/11 03:58:04;;;;;;;;;;;;;;;-2.30;100.00;99995.53;5095643;28;20312;-69
2020/12/11 04:00:30;;;;;;;;;;;;;;;-2.29;100.00;99989.31;5095526;28;19928;-69
2020/12/11 04:02:56;;;;;;;;;;;;;;;-2.34;100.00;99985.09;5095522;28;19924;-70
2020/12/11 04:05:22;;;;;;;;;;;;;;;-2.32;100.00;99978.81;5095476;28;19985;-69
2020/12/11 04:07:48;;;;;;;;;;;;;;;-2.29;100.00;99981.31;5095273;28;20024;-69
2020/12/11 04:10:14;;;;;;;;;;;;;;;-2.25;100.00;99984.75;5095497;28;20381;-69
2020/12/11 04:12:40;;;;;;;;;;;;;;;-2.27;100.00;99978.59;5095262;28;19928;-69
2020/12/11 04:15:06;;;;;;;;;;;;;;;-2.28;100.00;99979.56;5095473;28;19924;-69
2020/12/11 04:17:31;;;;;;;;;;;;;;;-2.32;100.00;99977.94;5094993;28;19924;-69
2020/12/11 04:19:57;;;;;;;;;;;;;;;-2.32;100.00;99981.47;5095347;28;19931;-69
2020/12/11 04:22:24;;;;;;;;;;;;;;;-2.32;100.00;99970.81;5095093;28;19928;-70
2020/12/11 04:24:50;;;;;;;;;;;;;;;-2.36;100.00;99979.84;5095269;28;19990;-69
2020/12/11 04:27:16;;;;;;;;;;;;;;;-2.34;100.00;99971.81;5095000;28;20378;-70
2020/12/11 04:29:42;;;;;;;;;;;;;;;-2.39;100.00;99972.88;5095265;28;19931;-69
2020/12/11 04:32:07;;;;;;;;;;;;;;;-2.39;100.00;99969.34;5076855;28;19947;-69
2020/12/11 04:34:33;;;;;;;;;;;;;;;-2.39;100.00;99972.88;5094946;28;19924;-69
2020/12/11 04:37:00;;;;;;;;;;;;;;;-2.36;100.00;99966.56;5094627;28;19924;-70
2020/12/11 04:39:27;;;;;;;;;;;;;;;-2.38;100.00;99971.06;5094926;28;19959;-70
2020/12/11 04:41:53;;;;;;;;;;;;;;;-2.40;100.00;99975.59;5094724;28;20397;-70
2020/12/11 04:44:19;;;;;;;;;;;;;;;-2.40;100.00;99976.44;5094462;28;19924;-69
2020/12/11 04:46:45;;;;;;;;;;;;;;;-2.35;100.00;99965.66;5094482;28;20018;-69
2020/12/11 04:49:11;;;;;;;;;;;;;;;-2.39;100.00;99962.22;5094757;28;19966;-69
2020/12/11 04:51:41;;;;;;;;;;;;;;;-2.37;100.00;99956.84;5094504;28;19934;-69
2020/12/11 04:54:07;;;;;;;;;;;;;;;-2.41;100.00;99964.06;5094693;28;19924;-69
2020/12/11 04:56:36;;;;;;;;;;;;;;;-2.41;100.00;99960.56;5094213;28;19974;-69
2020/12/11 04:59:02;;;;;;;;;;;;;;;-2.47;100.00;99955.47;5094513;28;20064;-70
2020/12/11 05:01:29;;;;;;;;;;;;;;;-2.47;100.00;99940.41;5076238;28;20451;-68
2020/12/11 05:03:56;;;;;;;;;;;;;;;-2.42;100.00;99941.09;5094418;28;20384;-70
2020/12/11 05:06:22;;;;;;;;;;;;;;;-2.38;100.00;99936.50;5094233;28;19928;-68
2020/12/11 05:08:47;;;;;;;;;;;;;;;-2.38;100.00;99925.88;5094354;28;19931;-68
2020/12/11 05:11:25;;;;;;;;;;;;;;;-2.39;100.00;99925.00;5094197;28;19924;-68
2020/12/11 05:13:52;;;;;;;;;;;;;;;-2.37;100.00;99919.63;5094288;28;19972;-69
2020/12/11 05:16:17;;;;;;;;;;;;;;;-2.40;100.00;99920.63;5093853;28;20018;-68
2020/12/11 05:18:43;;;;;;;;;;;;;;;-2.38;100.00;99925.88;5075984;28;20316;-70
2020/12/11 05:21:16;;;;;;;;;;;;;;;-2.40;100.00;99925.94;5094087;28;19959;-70
2020/12/11 05:23:55;;;;;;;;;;;;;;;-2.38;100.00;99921.44;5093857;28;20019;-68
2020/12/11 05:26:21;;;;;;;;;;;;;;;-2.39;100.00;99916.19;5085673;28;19928;-67
2020/12/11 05:28:47;;;;;;;;;;;;;;;-2.40;100.00;99911.78;5086712;28;19935;-67
2020/12/11 05:31:14;;;;;;;;;;;;;;;-2.43;100.00;99907.47;5093787;28;19924;-67
2020/12/11 05:33:57;;;;;;;;;;;;;;;-2.41;100.00;99910.06;5093082;28;20022;-67
2020/12/11 05:36:23;;;;;;;;;;;;;;;-2.42;100.00;99911.84;5089219;28;20027;-67
2020/12/11 05:38:49;;;;;;;;;;;;;;;-2.42;100.00;99903.88;5064765;28;19927;-67
2020/12/11 05:41:30;;;;;;;;;;;;;;;-2.40;100.00;99911.78;5086867;28;20019;-67
2020/12/11 05:43:56;;;;;;;;;;;;;;;-2.38;100.00;99917.91;5092655;28;20400;-67
2020/12/11 05:46:28;;;;;;;;;;;;;;;-2.41;100.00;99910.06;5092409;28;19924;-66
2020/12/11 05:48:53;;;;;;;;;;;;;;;-2.37;100.00;99907.19;5091550;28;20534;-67
2020/12/11 05:51:19;;;;;;;;;;;;;;;-2.39;100.00;99911.72;5074257;28;19925;-67
2020/12/11 05:53:45;;;;;;;;;;;;;;;-2.41;100.00;99905.59;5074753;28;19924;-67
2020/12/11 05:56:11;;;;;;;;;;;;;;;-2.38;100.00;99902.81;5073069;28;19928;-68
2020/12/11 05:58:37;;;;;;;;;;;;;;;-2.38;100.00;99907.25;5073660;28;19964;-68
2020/12/11 06:01:03;;;;;;;;;;;;;;;-2.40;100.00;99906.47;5076220;28;19934;-66
2020/12/11 06:03:29;;;;;;;;;;;;;;;-2.41;100.00;99902.06;5093275;28;19955;-68
2020/12/11 06:05:56;;;;;;;;;;;;;;;-2.37;100.00;99914.31;5061930;28;19959;-68
2020/12/11 06:08:25;;;;;;;;;;;;;;;-2.35;100.00;99915.13;5092955;28;20015;-68
2020/12/11 06:10:51;;;;;;;;;;;;;;;-2.42;100.00;99911.84;5093327;28;20023;-67
2020/12/11 06:13:24;;;;;;;;;;;;;;;-2.41;100.00;99915.38;5093237;28;19924;-67
2020/12/11 06:15:54;;;;;;;;;;;;;;;-2.43;100.00;99909.22;5092914;28;20069;-67
2020/12/11 06:18:22;;;;;;;;;;;;;;;-2.43;100.00;99907.47;5092665;28;20412;-67
2020/12/11 06:20:52;;;;;;;;;;;;;;;-2.41;100.00;99910.91;5092800;28;19951;-67
2020/12/11 06:23:19;;;;;;;;;;;;;;;-2.42;100.00;99916.28;5077622;28;20012;-67
2020/12/11 06:25:48;;;;;;;;;;;;;;;-2.46;100.00;99914.69;5088311;28;19931;-67
2020/12/11 06:28:34;;;;;;;;;;;;;;;-2.45;100.00;99916.41;5090299;28;20034;-68
2020/12/11 06:31:00;;;;;;;;;;;;;;;-2.44;100.00;99918.16;5092239;28;19978;-67
2020/12/11 06:33:28;;;;;;;;;;;;;;;-2.44;100.00;99916.34;5091651;28;20011;-68
2020/12/11 06:35:56;;;;;;;;;;;;;;;-2.45;100.00;99900.47;5092498;28;20043;-68
2020/12/11 06:38:38;;;;;;;;;;;;;;;-2.39;100.00;99901.09;5082630;28;19924;-68
2020/12/11 06:41:04;;;;;;;;;;;;;;;-2.36;100.00;99918.72;5079161;28;20378;-68
2020/12/11 06:43:36;;;;;;;;;;;;;;;-2.37;100.00;99906.34;5081039;28;19924;-68
2020/12/11 06:46:12;;;;;;;;;;;;;;;-2.33;100.00;99907.09;5084594;28;20370;-69
2020/12/11 06:49:04;;;;;;;;;;;;;;;-2.34;100.00;99906.19;5090385;28;20031;-69
2020/12/11 06:51:30;;;;;;;;;;;;;;;-2.32;100.00;99901.69;5071158;28;20367;-70
2020/12/11 06:53:56;;;;;;;;;;;;;;;-2.31;100.00;99899.91;5082106;28;20015;-70
2020/12/11 06:56:37;;;;;;;;;;;;;;;-2.33;100.00;99893.78;5091942;28;20360;-69
2020/12/11 06:59:18;;;;;;;;;;;;;;;-2.32;100.00;99895.53;5091306;28;19948;-68
2020/12/11 07:01:43;;;;;;;;;;;;;;;-2.31;100.00;99891.91;5090031;28;20250;-68
2020/12/11 07:04:09;;;;;;;;;;;;;;;-2.30;100.00;99893.66;5087925;28;19931;-68
2020/12/11 07:06:36;;;;;;;;;;;;;;;-2.28;100.00;99892.66;5081643;28;19932;-68
2020/12/11 07:09:02;;;;;;;;;;;;;;;-2.23;100.00;99885.38;5082242;28;20476;-67
2020/12/11 07:11:28;;;;;;;;;;;;;;;-2.28;100.00;99879.38;5089072;28;19924;-67
2020/12/11 07:13:54;;;;;;;;;;;;;;;-2.25;100.00;99881.91;5091781;28;20464;-67
2020/12/11 07:16:20;;;;;;;;;;;;;;;-2.21;100.00;99872.84;5090405;28;20438;-67
2020/12/11 07:18:46;;;;;;;;;;;;;;;-2.20;100.00;99865.75;5091153;28;19974;-67
2020/12/11 07:21:12;;;;;;;;;;;;;;;-2.20;100.00;99866.63;5088663;28;19928;-68
2020/12/11 07:23:39;;;;;;;;;;;;;;;-2.22;100.00;99863.16;5091622;28;20305;-68
2020/12/11 07:26:05;;;;;;;;;;;;;;;-2.17;100.00;99838.19;5089876;28;20477;-69
2020/12/11 07:28:31;;;;;;;;;;;;;;;-2.23;100.00;99844.59;5091627;28;19925;-68
2020/12/11 07:30:57;;;;;;;;;;;;;;;-2.22;100.00;99847.22;5078583;28;19925;-68
2020/12/11 07:33:29;;;;;;;;;;;;;;;-2.19;100.00;99851.53;5073235;28;19924;-68
2020/12/11 07:35:54;;;;;;;;;;;;;;;-2.15;100.00;99853.13;5084195;28;19924;-68
2020/12/11 07:38:26;;;;;;;;;;;;;;;-2.17;100.00;99843.50;5076540;28;20362;-68
2020/12/11 07:40:53;;;;;;;;;;;;;;;-2.16;100.00;99840.78;5075441;28;19924;-69
2020/12/11 07:43:20;;;;;;;;;;;;;;;-2.10;100.00;99845.84;5079144;28;19939;-68
2020/12/11 07:45:46;;;;;;;;;;;;;;;-2.06;100.00;99838.56;5072443;28;20351;-69
2020/12/11 07:48:13;;;;;;;;;;;;;;;-2.06;100.00;99846.53;5084260;28;20331;-67
2020/12/11 07:50:38;;;;;;;;;;;;;;;-2.05;100.00;99865.09;5079201;28;19935;-68
2020/12/11 07:53:07;;;;;;;;;;;;;;;-2.00;100.00;99864.91;5090571;28;20404;-66
2020/12/11 07:55:33;;;;;;;;;;;;;;;-2.02;100.00;99859.66;5065933;28;19981;-66
2020/12/11 07:58:01;;;;;;;;;;;;;;;-1.98;100.00;99870.16;5089313;28;19924;-66
2020/12/11 08:00:27;;;;;;;;;;;;;;;-1.97;100.00;99867.44;5086040;28;19924;-66
2020/12/11 08:02:53;;;;;;;;;;;;;;;-1.93;100.00;99878.81;5084526;28;20389;-66
2020/12/11 08:05:20;;;;;;;;;;;;;;;-1.92;100.00;99873.41;5091355;28;20531;-66
2020/12/11 08:07:48;;;;;;;;;;;;;;;-1.90;100.00;99868.03;5090301;28;20007;-66
2020/12/11 08:10:14;;;;;;;;;;;;;;;-1.96;100.00;99869.16;5091224;28;20378;-66
2020/12/11 08:12:40;;;;;;;;;;;;;;;-1.93;100.00;99863.69;5089241;28;20019;-66
2020/12/11 08:15:08;;;;;;;;;;;;;;;-1.93;100.00;99862.84;5089389;28;19931;-66
2020/12/11 08:17:34;;;;;;;;;;;;;;;-1.96;100.00;99852.34;5082326;28;19986;-67
2020/12/11 08:20:00;;;;;;;;;;;;;;;-1.99;100.00;99853.34;5070945;28;20410;-67
2020/12/11 08:22:33;;;;;;;;;;;;;;;-1.94;100.00;99855.78;5082064;28;19928;-67
2020/12/11 08:24:59;;;;;;;;;;;;;;;-1.98;100.00;99855.06;5073093;28;20405;-67
2020/12/11 08:27:25;;;;;;;;;;;;;;;-1.97;100.00;99854.13;5090383;28;19957;-67
2020/12/11 08:30:03;;;;;;;;;;;;;;;-1.94;100.00;99851.31;5080105;28;19950;-66
2020/12/11 08:32:29;;;;;;;;;;;;;;;-1.90;100.00;99849.41;5091569;28;19930;-67
2020/12/11 08:34:55;;;;;;;;;;;;;;;-1.82;100.00;99844.59;5083761;28;19931;-67
2020/12/11 08:37:21;;;;;;;;;;;;;;;-1.80;100.00;99855.19;5093453;28;19928;-67
2020/12/11 08:39:47;;;;;;;;;;;;;;;-1.83;100.00;99852.66;5092288;28;19924;-67
2020/12/11 08:42:18;;;;;;;;;;;;;;;-1.89;100.00;99856.47;5086505;28;19924;-67
2020/12/11 08:45:06;;;;;;;;;;;;;;;-1.89;100.00;99854.66;5083137;28;19931;-67
2020/12/11 08:50:21;;;;;;;;;;;;;;;-1.78;100.00;99864.81;5051325;28;19924;-67
2020/12/11 08:52:47;;;;;;;;;;;;;;;-1.77;100.00;99871.03;5074021;28;20396;-67
2020/12/11 08:55:13;;;;;;;;;;;;;;;-1.85;100.00;99861.56;5088645;28;19924;-67
2020/12/11 08:57:38;;;;;;;;;;;;;;;-1.89;100.00;99865.28;5093665;28;19931;-67
2020/12/11 09:00:04;;;;;;;;;;;;;;;-1.92;100.00;99870.75;5093274;28;19931;-66
2020/12/11 09:02:30;;;;;;;;;;;;;;;-1.90;100.00;99868.91;5082933;28;19994;-66
2020/12/11 09:04:57;;;;;;;;;;;;;;;-1.93;100.00;99861.03;5094243;28;19928;-67
2020/12/11 09:07:24;;;;;;;;;;;;;;;-1.89;100.00;99862.63;5088997;28;19963;-67
2020/12/11 09:09:50;;;;;;;;;;;;;;;-1.90;100.00;99852.94;5074268;28;20305;-66
2020/12/11 09:12:16;;;;;;;;;;;;;;;-1.88;100.00;99856.38;5073681;28;19924;-66
2020/12/11 09:14:41;;;;;;;;;;;;;;;-1.89;100.00;99857.31;5086719;28;19928;-68
2020/12/11 09:17:07;;;;;;;;;;;;;;;-1.87;100.00;99858.13;5091974;28;19978;-67
2020/12/11 09:19:33;;;;;;;;;;;;;;;-1.93;100.00;99850.41;5093307;28;19936;-67
2020/12/11 09:22:01;;;;;;;;;;;;;;;-1.89;100.00;99851.13;5087567;28;20305;-67
2020/12/11 09:24:27;;;;;;;;;;;;;;;-1.89;100.00;99853.81;5092975;28;19993;-67
2020/12/11 09:26:53;;;;;;;;;;;;;;;-1.90;100.00;99846.75;5093045;28;19925;-68
2020/12/11 09:29:26;;;;;;;;;;;;;;;-1.91;100.00;99843.22;5075409;28;19951;-67
2020/12/11 09:31:53;;;;;;;;;;;;;;;-1.89;100.00;99837.84;5082590;28;19928;-67
2020/12/11 09:34:19;;;;;;;;;;;;;;;-1.88;100.00;99840.44;5093612;28;19928;-68
2020/12/11 09:36:45;;;;;;;;;;;;;;;-1.87;100.00;99828.88;5075449;28;19978;-67
2020/12/11 09:39:12;;;;;;;;;;;;;;;-1.85;100.00;99834.09;5073440;28;19946;-67
2020/12/11 09:41:38;;;;;;;;;;;;;;;-1.80;100.00;99826.78;5078084;28;19978;-67
2020/12/11 09:44:26;;;;;;;;;;;;;;;-1.79;100.00;99823.22;5080424;28;20024;-67
2020/12/11 09:47:01;;;;;;;;;;;;;;;-1.79;100.00;99817.88;5092069;28;19936;-67
2020/12/11 09:49:34;;;;;;;;;;;;;;;-1.72;100.00;99813.16;5093380;28;19981;-67
2020/12/11 09:52:13;;;;;;;;;;;;;;;-1.66;100.00;99815.50;5090679;28;20316;-68
2020/12/11 09:54:40;;;;;;;;;;;;;;;-1.67;100.00;99811.16;5094784;28;19971;-67
2020/12/11 09:57:06;;;;;;;;;;;;;;;-1.66;100.00;99809.34;5109845;28;19976;-68
2020/12/11 09:59:34;;;;;;;;;;;;;;;-1.64;100.00;99805.69;5093076;28;20392;-68
2020/12/11 10:02:06;;;;;;;;;;;;;;;-1.65;100.00;99803.09;5089741;28;19924;-68
2020/12/11 10:04:32;;;;;;;;;;;;;;;-1.67;100.00;99803.16;5082065;28;19928;-68
2020/12/11 10:06:58;;;;;;;;;;;;;;;-1.69;100.00;99802.34;5092485;28;19950;-67
2020/12/11 10:09:23;;;;;;;;;;;;;;;-1.71;100.00;99805.09;5081560;28;19947;-69
2020/12/11 10:11:51;;;;;;;;;;;;;;;-1.64;100.00;99802.13;5091174;28;19924;-67
2020/12/11 10:14:25;;;;;;;;;;;;;;;-1.62;100.00;99798.47;5092829;28;19927;-67
2020/12/11 10:16:51;;;;;;;;;;;;;;;-1.65;100.00;99793.31;5091759;28;19959;-67
2020/12/11 10:19:17;;;;;;;;;;;;;;;-1.73;100.00;99785.66;5092620;28;19924;-67
2020/12/11 10:21:45;;;;;;;;;;;;;;;-1.67;100.00;99771.22;5079804;28;19931;-67
2020/12/11 10:24:10;;;;;;;;;;;;;;;-1.58;100.00;99780.56;5075080;28;20015;-67
2020/12/11 10:26:38;;;;;;;;;;;;;;;-1.60;100.00;99764.69;5075306;28;19972;-68
2020/12/11 10:29:04;;;;;;;;;;;;;;;-1.63;100.00;99774.59;5091751;28;20019;-67
2020/12/11 10:31:30;;;;;;;;;;;;;;;-1.70;100.00;99771.34;5092203;28;19963;-67
2020/12/11 10:33:56;;;;;;;;;;;;;;;-1.76;100.00;99769.00;5087073;28;20293;-67
2020/12/11 10:36:27;;;;;;;;;;;;;;;-1.84;100.00;99761.34;5092142;28;19970;-67
2020/12/11 10:38:53;;;;;;;;;;;;;;;-1.81;100.00;99761.19;5091748;28;20285;-67
2020/12/11 10:41:20;;;;;;;;;;;;;;;-1.74;100.00;99760.00;5092068;28;19931;-67
2020/12/11 10:43:47;;;;;;;;;;;;;;;-1.72;100.00;99749.28;5081184;28;19982;-68
2020/12/11 10:46:13;;;;;;;;;;;;;;;-1.82;100.00;99740.00;5090155;28;20014;-67
2020/12/11 10:48:39;;;;;;;;;;;;;;;-1.95;100.00;99739.66;5091372;28;20409;-67
2020/12/11 10:51:05;;;;;;;;;;;;;;;-1.95;100.00;99743.22;5091708;28;19969;-66
2020/12/11 10:53:33;;;;;;;;;;;;;;;-1.99;100.00;99736.31;5090945;28;19924;-67
2020/12/11 10:55:59;;;;;;;;;;;;;;;-1.97;100.00;99733.56;5090386;28;19969;-67
2020/12/11 10:58:25;;;;;;;;;;;;;;;-2.03;100.00;99727.59;5072228;28;19924;-67
2020/12/11 11:00:50;;;;;;;;;;;;;;;-1.94;100.00;99726.28;5080244;28;20395;-67
2020/12/11 11:03:17;;;;;;;;;;;;;;;-1.81;100.00;99726.59;5091799;28;19924;-67
2020/12/11 11:05:44;;;;;;;;;;;;;;;-1.85;100.00;99720.56;5091233;28;19959;-68
2020/12/11 11:08:10;;;;;;;;;;;;;;;-1.92;100.00;99711.13;5071943;28;19925;-67
2020/12/11 11:10:41;;;;;;;;;;;;;;;-1.90;100.00;99719.03;5073597;28;20510;-67
2020/12/11 11:13:15;;;;;;;;;;;;;;;-1.78;100.00;99712.31;5090679;28;19924;-67
2020/12/11 11:15:47;;;;;;;;;;;;;;;-1.76;100.00;99715.78;5062414;28;19929;-68
2020/12/11 11:18:29;;;;;;;;;;;;;;;-1.76;100.00;99708.63;5071456;28;19950;-67
2020/12/11 11:21:07;;;;;;;;;;;;;;;-1.74;100.00;99712.09;5083014;28;19924;-68
2020/12/11 11:26:44;;;;;;;;;;;;;;;-1.62;100.00;99704.47;5079997;28;20377;-68
2020/12/11 11:29:09;;;;;;;;;;;;;;;-1.73;100.00;99713.81;5090625;28;19924;-68
2020/12/11 11:31:35;;;;;;;;;;;;;;;-1.76;100.00;99699.81;5074881;28;20355;-68
2020/12/11 11:34:01;;;;;;;;;;;;;;;-1.73;100.00;99697.84;5061338;28;19931;-68
2020/12/11 11:36:29;;;;;;;;;;;;;;;-1.66;100.00;99697.56;5073307;28;19935;-67
2020/12/11 11:38:55;;;;;;;;;;;;;;;-1.65;100.00;99694.81;5084762;28;20393;-67
2020/12/11 11:44:21;;;;;;;;;;;;;;;-1.70;100.00;99697.72;5076988;28;19924;-68
2020/12/11 11:46:47;;;;;;;;;;;;;;;-1.73;100.00;99695.19;5091220;28;20015;-68
2020/12/11 11:49:16;;;;;;;;;;;;;;;-1.71;100.00;99698.66;5088850;28;19924;-67
2020/12/11 11:51:49;;;;;;;;;;;;;;;-1.64;100.00;99693.00;5091259;28;19924;-68
2020/12/11 11:54:15;;;;;;;;;;;;;;;-1.56;100.00;99689.06;5087948;28;19924;-67
2020/12/11 11:56:41;;;;;;;;;;;;;;;-1.54;100.00;99689.88;5079566;28;19924;-67
2020/12/11 11:59:07;;;;;;;;;;;;;;;-1.50;100.00;99689.72;5079843;28;20370;-67
2020/12/11 12:01:33;;;;;;;;;;;;;;;-1.43;100.00;99691.13;5090212;28;19950;-67
2020/12/11 12:03:59;;;;;;;;;;;;;;;-1.44;100.00;99681.41;5091035;28;19924;-67
2020/12/11 12:06:24;;;;;;;;;;;;;;;-1.38;100.00;99681.13;5094991;28;19931;-67
2020/12/11 12:08:51;;;;;;;;;;;;;;;-1.30;100.00;99692.25;5093553;28;20449;-66
2020/12/11 12:11:17;;;;;;;;;;;;;;;-1.20;100.00;99682.03;5074014;28;20510;-67
2020/12/11 12:13:43;;;;;;;;;;;;;;;-1.24;100.00;99683.13;5094369;28;19941;-67
2020/12/11 12:16:08;;;;;;;;;;;;;;;-1.26;100.00;99680.53;5094005;28;19924;-67
2020/12/11 12:18:38;;;;;;;;;;;;;;;-1.25;100.00;99679.59;5095015;28;19924;-67
2020/12/11 12:21:07;;;;;;;;;;;;;;;-1.25;100.00;99673.41;5084515;28;20305;-66
2020/12/11 12:29:07;;;;;;;;;;;;;;;-1.17;100.00;99667.72;5074749;28;19931;-67
2020/12/11 12:31:38;;;;;;;;;;;;;;;-1.15;100.00;99660.50;5059532;28;20293;-67
2020/12/11 12:37:11;;;;;;;;;;;;;;;-1.20;100.00;99658.06;5094636;28;20365;-67
2020/12/11 12:42:45;;;;;;;;;;;;;;;-1.14;100.00;99648.91;5076465;28;20018;-70
2020/12/11 12:45:11;;;;;;;;;;;;;;;-1.03;100.00;99654.53;5089900;28;20011;-66
2020/12/11 12:47:38;;;;;;;;;;;;;;;-1.06;100.00;99650.22;5091034;28;19928;-66
2020/12/11 12:50:05;;;;;;;;;;;;;;;-1.03;100.00;99644.78;5092348;28;19985;-65
2020/12/11 12:52:30;;;;;;;;;;;;;;;-1.05;100.00;99648.44;5093932;28;20448;-66
2020/12/11 12:54:56;;;;;;;;;;;;;;;-1.03;100.00;99638.56;5075326;28;19977;-66
2020/12/11 12:57:26;;;;;;;;;;;;;;;-0.99;100.00;99636.63;5083516;28;19932;-66